sensor_id;sensor_type;location;lat;lon;timestamp;pressure;altitude;pressure_sealevel;temperature;humidity
32759;BME280;19125;52.360;9.974;2023-03-13T00:02:06;24301.31;;;-145.17;66.32
32759;BME280;19125;52.360;9.974;2023-03-13T00:04:31;24801.47;;;-145.17;66.72
32759;BME280;19125;52.360;9.974;2023-03-13T00:06:57;25551.84;;;-145.17;66.07
32759;BME280;19125;52.360;9.974;2023-03-13T00:09:22;26302.34;;;-145.17;66.39
32759;BME280;19125;52.360;9.974;2023-03-13T00:11:48;27053.00;;;-145.17;66.29
32759;BME280;19125;52.360;9.974;2023-03-13T00:14:13;27553.50;;;-145.17;66.34
32759;BME280;19125;52.360;9.974;2023-03-13T00:16:38;27803.78;;;-145.17;66.27
32759;BME280;19125;52.360;9.974;2023-03-13T00:19:05;27553.50;;;-145.17;65.96
32759;BME280;19125;52.360;9.974;2023-03-13T00:21:31;27053.00;;;-145.17;66.40
32759;BME280;19125;52.360;9.974;2023-03-13T00:23:58;28304.41;;;-145.17;65.92
32759;BME280;19125;52.360;9.974;2023-03-13T00:26:26;29305.81;;;-145.17;66.42
32759;BME280;19125;52.360;9.974;2023-03-13T00:28:52;30057.06;;;-145.17;65.98
32759;BME280;19125;52.360;9.974;2023-03-13T00:31:29;31058.91;;;-145.17;65.88
32759;BME280;19125;52.360;9.974;2023-03-13T00:34:00;32061.03;;;-145.17;66.02
32759;BME280;19125;52.360;9.974;2023-03-13T00:36:28;32311.59;;;-145.17;66.03
32759;BME280;19125;52.360;9.974;2023-03-13T00:38:55;32311.59;;;-145.17;65.94
32759;BME280;19125;52.360;9.974;2023-03-13T00:41:23;32812.78;;;-145.17;66.05
32759;BME280;19125;52.360;9.974;2023-03-13T00:43:49;33564.69;;;-145.17;65.80
32759;BME280;19125;52.360;9.974;2023-03-13T00:46:17;34567.47;;;-145.17;65.98
32759;BME280;19125;52.360;9.974;2023-03-13T00:48:43;36824.63;;;-145.17;65.75
32759;BME280;19125;52.360;9.974;2023-03-13T00:51:09;38581.06;;;-145.17;65.28
32759;BME280;19125;52.360;9.974;2023-03-13T00:53:35;40338.31;;;-145.17;65.31
32759;BME280;19125;52.360;9.974;2023-03-13T00:56:03;42347.56;;;-145.17;65.08
32759;BME280;19125;52.360;9.974;2023-03-13T00:58:31;43855.16;;;-145.17;64.94
32759;BME280;19125;52.360;9.974;2023-03-13T01:01:05;46117.66;;;-145.17;64.60
32759;BME280;19125;52.360;9.974;2023-03-13T01:03:31;48381.44;;;-145.17;64.47
32759;BME280;19125;52.360;9.974;2023-03-13T01:05:57;51150.06;;;-145.17;64.27
32759;BME280;19125;52.360;9.974;2023-03-13T01:08:23;54676.56;;;-145.17;63.75
32759;BME280;19125;52.360;9.974;2023-03-13T01:10:49;57449.56;;;-145.17;63.73
32759;BME280;19125;52.360;9.974;2023-03-13T01:13:14;60729.28;;;-145.17;63.49
32759;BME280;19125;52.360;9.974;2023-03-13T01:15:40;62748.91;;;-145.17;63.57
32759;BME280;19125;52.360;9.974;2023-03-13T01:18:05;64674.81;;;-145.17;63.47
32759;BME280;19125;52.360;9.974;2023-03-13T01:20:30;65979.69;;;-145.17;63.56
32759;BME280;19125;52.360;9.974;2023-03-13T01:22:56;66889.97;;;-145.17;63.26
32759;BME280;19125;52.360;9.974;2023-03-13T01:25:21;68845.56;;;-145.17;62.48
32759;BME280;19125;52.360;9.974;2023-03-13T01:27:46;71235.03;;;-145.17;62.60
32759;BME280;19125;52.360;9.974;2023-03-13T01:30:12;74227.34;;;-145.17;63.12
32759;BME280;19125;52.360;9.974;2023-03-13T01:32:37;76952.63;;;-145.17;62.37
32759;BME280;19125;52.360;9.974;2023-03-13T01:35:03;79113.22;;;-145.17;61.92
32759;BME280;19125;52.360;9.974;2023-03-13T01:37:28;80500.06;;;-145.17;62.10
32759;BME280;19125;52.360;9.974;2023-03-13T01:39:54;81475.13;;;-145.17;61.72
32759;BME280;19125;52.360;9.974;2023-03-13T01:42:19;81990.50;;;-145.17;61.55
32759;BME280;19125;52.360;9.974;2023-03-13T01:45:02;82020.22;;;-145.17;61.64
32759;BME280;19125;52.360;9.974;2023-03-13T01:47:28;81586.13;;;-145.17;61.94
32759;BME280;19125;52.360;9.974;2023-03-13T01:49:53;81181.78;;;-145.17;61.45
32759;BME280;19125;52.360;9.974;2023-03-13T01:52:23;80672.47;;;-145.17;62.48
32759;BME280;19125;52.360;9.974;2023-03-13T01:54:54;79495.53;;;-145.17;62.11
32759;BME280;19125;52.360;9.974;2023-03-13T01:57:33;78396.19;;;-145.17;62.61
32759;BME280;19125;52.360;9.974;2023-03-13T02:00:07;76875.44;;;-145.17;62.39
32759;BME280;19125;52.360;9.974;2023-03-13T02:02:35;75026.72;;;-145.17;63.25
32759;BME280;19125;52.360;9.974;2023-03-13T02:05:03;73178.91;;;-145.17;63.25
32759;BME280;19125;52.360;9.974;2023-03-13T02:07:40;70181.44;;;-145.17;63.17
32759;BME280;19125;52.360;9.974;2023-03-13T02:10:08;66548.34;;;-145.17;63.24
32759;BME280;19125;52.360;9.974;2023-03-13T02:12:36;63001.44;;;-145.17;63.83
32759;BME280;19125;52.360;9.974;2023-03-13T02:15:14;59719.84;;;-145.17;64.28
32759;BME280;19125;52.360;9.974;2023-03-13T02:17:41;55180.59;;;-145.17;64.26
32759;BME280;19125;52.360;9.974;2023-03-13T02:20:08;51653.66;;;-145.17;64.33
32759;BME280;19125;52.360;9.974;2023-03-13T02:22:43;47375.16;;;-145.17;64.63
32759;BME280;19125;52.360;9.974;2023-03-13T02:28:10;40589.41;;;-145.17;65.61
32759;BME280;19125;52.360;9.974;2023-03-13T02:30:40;37326.38;;;-145.17;66.06
32759;BME280;19125;52.360;9.974;2023-03-13T02:33:07;35319.69;;;-145.17;66.25
32759;BME280;19125;52.360;9.974;2023-03-13T02:35:33;33314.06;;;-145.17;66.49
32759;BME280;19125;52.360;9.974;2023-03-13T02:38:03;30808.44;;;-145.17;66.79
32759;BME280;19125;52.360;9.974;2023-03-13T02:40:34;28554.75;;;-145.17;66.70
32759;BME280;19125;52.360;9.974;2023-03-13T02:43:02;26802.75;;;-145.17;67.27
32759;BME280;19125;52.360;9.974;2023-03-13T02:45:29;25051.56;;;-145.17;67.42
32759;BME280;19125;52.360;9.974;2023-03-13T02:47:54;24051.25;;;-145.17;67.53
32759;BME280;19125;52.360;9.974;2023-03-13T02:50:20;22301.28;;;-145.17;67.63
32759;BME280;19125;52.360;9.974;2023-03-13T02:52:47;20801.97;;;-145.17;67.70
32759;BME280;19125;52.360;9.974;2023-03-13T02:55:21;19802.72;;;-145.17;67.52
32759;BME280;19125;52.360;9.974;2023-03-13T02:57:48;18803.75;;;-145.17;68.28
32759;BME280;19125;52.360;9.974;2023-03-13T03:00:15;18054.69;;;-145.17;67.85
32759;BME280;19125;52.360;9.974;2023-03-13T03:02:44;17305.75;;;-145.17;68.10
32759;BME280;19125;52.360;9.974;2023-03-13T03:05:10;16307.41;;;-145.17;68.49
32759;BME280;19125;52.360;9.974;2023-03-13T03:07:36;15309.34;;;-145.17;68.26
32759;BME280;19125;52.360;9.974;2023-03-13T03:10:02;14560.94;;;-145.17;68.07
32759;BME280;19125;52.360;9.974;2023-03-13T03:12:28;14560.94;;;-145.17;68.46
32759;BME280;19125;52.360;9.974;2023-03-13T03:14:53;14810.38;;;-145.17;68.48
32759;BME280;19125;52.360;9.974;2023-03-13T03:17:18;15059.84;;;-145.17;68.25
32759;BME280;19125;52.360;9.974;2023-03-13T03:19:44;15558.84;;;-145.17;68.32
32759;BME280;19125;52.360;9.974;2023-03-13T03:22:09;15808.34;;;-145.17;67.92
32759;BME280;19125;52.360;9.974;2023-03-13T03:24:34;15808.34;;;-145.17;68.40
32759;BME280;19125;52.360;9.974;2023-03-13T03:27:00;16057.88;;;-145.17;67.93
32759;BME280;19125;52.360;9.974;2023-03-13T03:29:25;16556.97;;;-145.17;68.16
32759;BME280;19125;52.360;9.974;2023-03-13T03:31:52;16307.41;;;-145.17;68.18
32759;BME280;19125;52.360;9.974;2023-03-13T03:34:17;15808.34;;;-145.17;68.09
32759;BME280;19125;52.360;9.974;2023-03-13T03:36:42;15558.84;;;-145.17;68.21
32759;BME280;19125;52.360;9.974;2023-03-13T03:39:08;15059.84;;;-145.17;68.32
32759;BME280;19125;52.360;9.974;2023-03-13T03:41:33;14810.38;;;-145.17;68.56
32759;BME280;19125;52.360;9.974;2023-03-13T03:43:59;14311.50;;;-145.17;68.81
32759;BME280;19125;52.360;9.974;2023-03-13T03:46:25;13812.69;;;-145.17;68.59
32759;BME280;19125;52.360;9.974;2023-03-13T03:48:50;13064.59;;;-145.17;68.64
32759;BME280;19125;52.360;9.974;2023-03-13T03:51:15;12067.34;;;-145.17;69.30
32759;BME280;19125;52.360;9.974;2023-03-13T03:53:41;10821.13;;;-145.17;69.25
32759;BME280;19125;52.360;9.974;2023-03-13T03:56:06;9824.47;;;-145.17;69.28
32759;BME280;19125;52.360;9.974;2023-03-13T03:58:32;8828.06;;;-145.17;69.75
32759;BME280;19125;52.360;9.974;2023-03-13T04:00:57;7831.91;;;-145.17;69.63
32759;BME280;19125;52.360;9.974;2023-03-13T04:03:23;6836.00;;;-145.17;69.57
32759;BME280;19125;52.360;9.974;2023-03-13T04:05:48;6089.22;;;-145.17;69.73
32759;BME280;19125;52.360;9.974;2023-03-13T04:08:15;5342.63;;;-145.17;69.61
32759;BME280;19125;52.360;9.974;2023-03-13T04:10:40;4596.16;;;-145.17;70.19
32759;BME280;19125;52.360;9.974;2023-03-13T04:13:06;3849.81;;;-145.17;69.70
32759;BME280;19125;52.360;9.974;2023-03-13T04:15:31;3103.63;;;-145.17;70.43
32759;BME280;19125;52.360;9.974;2023-03-13T04:17:56;2606.25;;;-145.17;70.43
32759;BME280;19125;52.360;9.974;2023-03-13T04:20:22;2108.97;;;-145.17;70.42
32759;BME280;19125;52.360;9.974;2023-03-13T04:22:47;1363.13;;;-145.17;70.03
32759;BME280;19125;52.360;9.974;2023-03-13T04:25:13;617.41;;;-145.17;70.52
32759;BME280;19125;52.360;9.974;2023-03-13T04:27:38;-128.16;;;-145.17;70.29
32759;BME280;19125;52.360;9.974;2023-03-13T04:30:04;-1122.00;;;-145.17;70.52
32759;BME280;19125;52.360;9.974;2023-03-13T04:32:29;-1867.22;;;-145.17;70.70
32759;BME280;19125;52.360;9.974;2023-03-13T04:34:55;-2612.28;;;-145.17;70.94
32759;BME280;19125;52.360;9.974;2023-03-13T04:37:20;-3357.22;;;-145.17;71.23
32759;BME280;19125;52.360;9.974;2023-03-13T04:39:46;-4102.00;;;-145.17;71.25
32759;BME280;19125;52.360;9.974;2023-03-13T04:42:11;-5094.84;;;-145.17;71.62
32759;BME280;19125;52.360;9.974;2023-03-13T04:44:37;-6087.41;;;-145.17;71.67
32759;BME280;19125;52.360;9.974;2023-03-13T04:47:02;-7079.72;;;-145.17;71.75
32759;BME280;19125;52.360;9.974;2023-03-13T04:49:28;-8071.78;;;-145.17;71.69
32759;BME280;19125;52.360;9.974;2023-03-13T04:51:54;-8815.66;;;-145.17;72.09
32759;BME280;19125;52.360;9.974;2023-03-13T04:54:19;-9559.38;;;-145.17;72.00
32759;BME280;19125;52.360;9.974;2023-03-13T04:56:45;-9807.25;;;-145.17;72.00
32759;BME280;19125;52.360;9.974;2023-03-13T04:59:11;-10302.97;;;-145.17;72.34
32759;BME280;19125;52.360;9.974;2023-03-13T05:01:37;-10798.59;;;-145.17;72.06
32759;BME280;19125;52.360;9.974;2023-03-13T05:04:02;-11294.19;;;-145.17;72.49
32759;BME280;19125;52.360;9.974;2023-03-13T05:06:28;-12037.44;;;-145.17;72.25
32759;BME280;19125;52.360;9.974;2023-03-13T05:08:53;-12285.16;;;-145.17;72.43
32759;BME280;19125;52.360;9.974;2023-03-13T05:11:18;-12780.53;;;-145.17;72.78
32759;BME280;19125;52.360;9.974;2023-03-13T05:13:44;-13275.88;;;-145.17;72.78
32759;BME280;19125;52.360;9.974;2023-03-13T05:16:09;-13771.13;;;-145.17;72.71
32759;BME280;19125;52.360;9.974;2023-03-13T05:18:34;-14018.72;;;-145.17;72.67
32759;BME280;19125;52.360;9.974;2023-03-13T05:21:01;-14266.31;;;-145.17;73.33
32759;BME280;19125;52.360;9.974;2023-03-13T05:23:26;-14513.88;;;-145.17;72.96
32759;BME280;19125;52.360;9.974;2023-03-13T05:25:51;-14761.44;;;-145.17;73.06
32759;BME280;19125;52.360;9.974;2023-03-13T05:28:17;-15009.00;;;-145.17;73.13
32759;BME280;19125;52.360;9.974;2023-03-13T05:30:42;-15009.00;;;-145.17;73.15
32759;BME280;19125;52.360;9.974;2023-03-13T05:33:07;-15010.44;;;-145.17;73.12
32759;BME280;19125;52.360;9.974;2023-03-13T05:35:33;-15010.44;;;-145.17;73.44
32759;BME280;19125;52.360;9.974;2023-03-13T05:37:58;-15010.44;;;-145.17;73.60
32759;BME280;19125;52.360;9.974;2023-03-13T05:40:23;-15010.44;;;-145.17;73.44
32759;BME280;19125;52.360;9.974;2023-03-13T05:42:49;-15010.44;;;-145.17;73.76
32759;BME280;19125;52.360;9.974;2023-03-13T05:45:14;-15010.44;;;-145.17;73.83
32759;BME280;19125;52.360;9.974;2023-03-13T05:47:39;-15010.44;;;-145.17;74.23
32759;BME280;19125;52.360;9.974;2023-03-13T05:50:06;-15010.44;;;-145.17;74.36
32759;BME280;19125;52.360;9.974;2023-03-13T05:52:32;-15010.44;;;-145.17;73.98
32759;BME280;19125;52.360;9.974;2023-03-13T05:54:58;-15010.44;;;-145.17;74.31
32759;BME280;19125;52.360;9.974;2023-03-13T05:57:23;-15010.44;;;-145.17;74.18
32759;BME280;19125;52.360;9.974;2023-03-13T05:59:49;-15010.44;;;-145.17;74.40
32759;BME280;19125;52.360;9.974;2023-03-13T06:02:14;-15010.44;;;-145.17;74.46
32759;BME280;19125;52.360;9.974;2023-03-13T06:04:39;-15010.44;;;-145.17;74.88
32759;BME280;19125;52.360;9.974;2023-03-13T06:07:05;-15010.44;;;-145.17;73.99
32759;BME280;19125;52.360;9.974;2023-03-13T06:09:30;-15010.44;;;-145.17;74.26
32759;BME280;19125;52.360;9.974;2023-03-13T06:11:56;-15010.44;;;-145.17;74.53
32759;BME280;19125;52.360;9.974;2023-03-13T06:14:21;-15010.44;;;-145.17;74.75
32759;BME280;19125;52.360;9.974;2023-03-13T06:16:46;-15010.44;;;-145.17;74.54
32759;BME280;19125;52.360;9.974;2023-03-13T06:19:12;-15010.44;;;-145.17;74.90
32759;BME280;19125;52.360;9.974;2023-03-13T06:21:37;-15010.44;;;-145.17;74.52
32759;BME280;19125;52.360;9.974;2023-03-13T06:24:03;-15010.44;;;-145.17;74.43
32759;BME280;19125;52.360;9.974;2023-03-13T06:26:28;-15010.44;;;-145.17;74.94
32759;BME280;19125;52.360;9.974;2023-03-13T06:28:54;-15010.44;;;-145.17;74.55
32759;BME280;19125;52.360;9.974;2023-03-13T06:31:19;-15010.44;;;-145.17;74.57
32759;BME280;19125;52.360;9.974;2023-03-13T06:33:45;-15010.44;;;-145.17;74.67
32759;BME280;19125;52.360;9.974;2023-03-13T06:36:11;-15010.44;;;-145.17;74.57
32759;BME280;19125;52.360;9.974;2023-03-13T06:38:36;-15010.44;;;-145.17;74.66
32759;BME280;19125;52.360;9.974;2023-03-13T06:41:01;-15010.44;;;-145.17;75.02
32759;BME280;19125;52.360;9.974;2023-03-13T06:43:27;-15010.44;;;-145.17;74.84
32759;BME280;19125;52.360;9.974;2023-03-13T06:45:52;-15010.44;;;-145.17;74.49
32759;BME280;19125;52.360;9.974;2023-03-13T06:48:18;-15010.44;;;-145.17;74.80
32759;BME280;19125;52.360;9.974;2023-03-13T06:50:43;-15010.44;;;-145.17;74.47
32759;BME280;19125;52.360;9.974;2023-03-13T06:53:19;-15010.44;;;-145.17;74.61
32759;BME280;19125;52.360;9.974;2023-03-13T06:55:45;-15010.44;;;-145.17;75.16
32759;BME280;19125;52.360;9.974;2023-03-13T06:58:11;-15010.44;;;-145.17;74.65
32759;BME280;19125;52.360;9.974;2023-03-13T07:00:36;-15010.44;;;-145.17;74.73
32759;BME280;19125;52.360;9.974;2023-03-13T07:03:04;-15010.44;;;-145.17;74.80
32759;BME280;19125;52.360;9.974;2023-03-13T07:05:29;-15010.44;;;-145.17;74.97
32759;BME280;19125;52.360;9.974;2023-03-13T07:07:55;-15010.44;;;-145.17;74.46
32759;BME280;19125;52.360;9.974;2023-03-13T07:10:20;-15010.44;;;-145.17;74.84
32759;BME280;19125;52.360;9.974;2023-03-13T07:12:45;-15010.44;;;-145.17;75.06
32759;BME280;19125;52.360;9.974;2023-03-13T07:15:10;-15010.44;;;-145.17;74.67
32759;BME280;19125;52.360;9.974;2023-03-13T07:17:38;-15010.44;;;-145.17;74.89
32759;BME280;19125;52.360;9.974;2023-03-13T07:20:04;-15010.44;;;-145.17;75.00
32759;BME280;19125;52.360;9.974;2023-03-13T07:22:32;-15010.44;;;-145.17;74.67
32759;BME280;19125;52.360;9.974;2023-03-13T07:24:57;-15010.44;;;-145.17;74.93
32759;BME280;19125;52.360;9.974;2023-03-13T07:27:22;-15010.44;;;-145.17;75.13
32759;BME280;19125;52.360;9.974;2023-03-13T07:29:48;-15010.44;;;-145.17;75.06
32759;BME280;19125;52.360;9.974;2023-03-13T07:32:14;-15010.44;;;-145.17;75.22
32759;BME280;19125;52.360;9.974;2023-03-13T07:34:39;-15010.44;;;-145.17;75.12
32759;BME280;19125;52.360;9.974;2023-03-13T07:37:05;-15010.44;;;-145.17;75.19
32759;BME280;19125;52.360;9.974;2023-03-13T07:39:30;-15010.44;;;-145.17;74.73
32759;BME280;19125;52.360;9.974;2023-03-13T07:41:55;-15010.44;;;-145.17;74.73
32759;BME280;19125;52.360;9.974;2023-03-13T07:44:21;-15010.44;;;-145.17;74.66
32759;BME280;19125;52.360;9.974;2023-03-13T07:46:46;-15010.44;;;-145.17;74.67
32759;BME280;19125;52.360;9.974;2023-03-13T07:49:14;-15010.44;;;-145.17;74.40
32759;BME280;19125;52.360;9.974;2023-03-13T07:51:39;-15010.44;;;-145.17;74.63
32759;BME280;19125;52.360;9.974;2023-03-13T07:54:05;-15010.44;;;-145.17;74.58
32759;BME280;19125;52.360;9.974;2023-03-13T07:56:30;-15010.44;;;-145.17;74.23
32759;BME280;19125;52.360;9.974;2023-03-13T07:58:55;-15010.44;;;-145.17;74.49
32759;BME280;19125;52.360;9.974;2023-03-13T08:01:23;-15010.44;;;-145.17;74.58
32759;BME280;19125;52.360;9.974;2023-03-13T08:03:49;-15010.44;;;-145.17;74.34
32759;BME280;19125;52.360;9.974;2023-03-13T08:06:19;-15010.44;;;-145.17;74.15
32759;BME280;19125;52.360;9.974;2023-03-13T08:08:49;-15010.44;;;-145.17;74.50
32759;BME280;19125;52.360;9.974;2023-03-13T08:11:17;-15010.44;;;-145.17;74.54
32759;BME280;19125;52.360;9.974;2023-03-13T08:13:42;-15010.44;;;-145.17;74.40
32759;BME280;19125;52.360;9.974;2023-03-13T08:16:10;-15010.44;;;-145.17;74.28
32759;BME280;19125;52.360;9.974;2023-03-13T08:18:37;-15010.44;;;-145.17;74.36
32759;BME280;19125;52.360;9.974;2023-03-13T08:21:05;-15010.44;;;-145.17;74.09
32759;BME280;19125;52.360;9.974;2023-03-13T08:23:31;-15010.44;;;-145.17;73.83
32759;BME280;19125;52.360;9.974;2023-03-13T08:26:22;-15010.44;;;-145.17;73.75
32759;BME280;19125;52.360;9.974;2023-03-13T08:28:50;-15010.44;;;-145.17;74.08
32759;BME280;19125;52.360;9.974;2023-03-13T08:31:21;-15010.44;;;-145.17;73.83
32759;BME280;19125;52.360;9.974;2023-03-13T08:33:47;-15010.44;;;-145.17;73.72
32759;BME280;19125;52.360;9.974;2023-03-13T08:36:17;-15010.44;;;-145.17;73.99
32759;BME280;19125;52.360;9.974;2023-03-13T08:38:44;-15010.44;;;-145.17;73.76
32759;BME280;19125;52.360;9.974;2023-03-13T08:41:13;-15010.44;;;-145.17;74.01
32759;BME280;19125;52.360;9.974;2023-03-13T08:43:40;-15010.44;;;-145.17;73.76
32759;BME280;19125;52.360;9.974;2023-03-13T08:46:05;-15010.44;;;-145.17;73.71
32759;BME280;19125;52.360;9.974;2023-03-13T08:48:31;-15010.44;;;-145.17;73.33
32759;BME280;19125;52.360;9.974;2023-03-13T08:51:10;-15010.44;;;-145.17;73.70
32759;BME280;19125;52.360;9.974;2023-03-13T08:53:38;-15010.44;;;-145.17;73.36
32759;BME280;19125;52.360;9.974;2023-03-13T08:56:04;-15010.44;;;-145.17;72.98
32759;BME280;19125;52.360;9.974;2023-03-13T08:58:30;-15010.44;;;-145.17;73.09
32759;BME280;19125;52.360;9.974;2023-03-13T09:01:04;-15010.44;;;-145.17;72.86
32759;BME280;19125;52.360;9.974;2023-03-13T09:03:31;-15010.44;;;-145.17;72.69
32759;BME280;19125;52.360;9.974;2023-03-13T09:05:57;-15010.44;;;-145.17;72.70
32759;BME280;19125;52.360;9.974;2023-03-13T09:08:23;-15010.44;;;-145.17;72.36
32759;BME280;19125;52.360;9.974;2023-03-13T09:13:24;-15010.44;;;-145.17;72.14
32759;BME280;19125;52.360;9.974;2023-03-13T09:16:01;-15010.44;;;-145.17;71.94
32759;BME280;19125;52.360;9.974;2023-03-13T09:18:27;-15010.44;;;-145.17;71.74
32759;BME280;19125;52.360;9.974;2023-03-13T09:20:53;-15010.44;;;-145.17;71.38
32759;BME280;19125;52.360;9.974;2023-03-13T09:23:19;-15010.44;;;-145.17;71.10
32759;BME280;19125;52.360;9.974;2023-03-13T09:25:45;-15009.00;;;-145.17;70.58
32759;BME280;19125;52.360;9.974;2023-03-13T09:28:11;-14513.88;;;-145.17;70.41
32759;BME280;19125;52.360;9.974;2023-03-13T09:30:36;-13523.50;;;-145.17;70.21
32759;BME280;19125;52.360;9.974;2023-03-13T09:33:01;-12285.16;;;-145.17;69.82
32759;BME280;19125;52.360;9.974;2023-03-13T09:35:27;-10798.59;;;-145.17;69.16
32759;BME280;19125;52.360;9.974;2023-03-13T09:37:52;-8815.66;;;-145.17;68.73
32759;BME280;19125;52.360;9.974;2023-03-13T09:40:20;-6583.59;;;-145.17;68.27
32759;BME280;19125;52.360;9.974;2023-03-13T09:42:52;-3605.50;;;-145.17;67.79
32759;BME280;19125;52.360;9.974;2023-03-13T09:45:30;-625.09;;;-145.17;67.29
32759;BME280;19125;52.360;9.974;2023-03-13T09:48:05;2357.59;;;-145.17;66.54
32759;BME280;19125;52.360;9.974;2023-03-13T09:50:39;5093.78;;;-145.17;66.54
32759;BME280;19125;52.360;9.974;2023-03-13T09:53:14;8080.91;;;-145.17;66.10
32759;BME280;19125;52.360;9.974;2023-03-13T09:55:41;11070.34;;;-145.17;65.64
32759;BME280;19125;52.360;9.974;2023-03-13T09:58:21;14560.94;;;-145.17;65.22
32759;BME280;19125;52.360;9.974;2023-03-13T10:00:58;19552.97;;;-145.17;64.57
32759;BME280;19125;52.360;9.974;2023-03-13T10:03:30;25551.84;;;-145.17;63.97
32759;BME280;19125;52.360;9.974;2023-03-13T10:06:01;29556.22;;;-145.17;63.37
32759;BME280;19125;52.360;9.974;2023-03-13T10:08:33;32562.19;;;-145.17;62.99
32759;BME280;19125;52.360;9.974;2023-03-13T10:13:46;40087.25;;;-145.17;62.34
32759;BME280;19125;52.360;9.974;2023-03-13T10:16:18;42096.34;;;-145.17;62.29
32759;BME280;19125;52.360;9.974;2023-03-13T10:18:51;42850.03;;;-145.17;62.42
32759;BME280;19125;52.360;9.974;2023-03-13T10:21:20;43352.56;;;-145.17;62.25
32759;BME280;19125;52.360;9.974;2023-03-13T10:24:04;43603.84;;;-145.17;62.21
32759;BME280;19125;52.360;9.974;2023-03-13T10:26:36;45614.78;;;-145.17;62.05
32759;BME280;19125;52.360;9.974;2023-03-13T10:29:31;45614.78;;;-145.17;62.02
32759;BME280;19125;52.360;9.974;2023-03-13T10:34:25;48381.44;;;-145.17;61.77
32759;BME280;19125;52.360;9.974;2023-03-13T10:36:55;52157.31;;;-145.17;61.24
32759;BME280;19125;52.360;9.974;2023-03-13T10:39:22;55180.59;;;-145.17;60.92
32759;BME280;19125;52.360;9.974;2023-03-13T10:41:48;57197.41;;;-145.17;61.18
32759;BME280;19125;52.360;9.974;2023-03-13T10:44:20;60476.91;;;-145.17;60.64
32759;BME280;19125;52.360;9.974;2023-03-13T10:46:47;60729.28;;;-145.17;60.52
32759;BME280;19125;52.360;9.974;2023-03-13T10:49:20;61738.97;;;-145.17;60.43
32759;BME280;19125;52.360;9.974;2023-03-13T10:51:58;61991.44;;;-145.17;60.60
32759;BME280;19125;52.360;9.974;2023-03-13T10:54:27;61738.97;;;-145.17;60.54
32759;BME280;19125;52.360;9.974;2023-03-13T10:57:20;62496.41;;;-145.17;60.74
32759;BME280;19125;52.360;9.974;2023-03-13T10:59:51;61991.44;;;-145.17;60.50
32759;BME280;19125;52.360;9.974;2023-03-13T11:02:37;66842.59;;;-145.17;60.20
32759;BME280;19125;52.360;9.974;2023-03-13T11:05:35;71023.50;;;-145.17;59.54
32759;BME280;19125;52.360;9.974;2023-03-13T11:10:58;75774.81;;;-145.17;58.87
32759;BME280;19125;52.360;9.974;2023-03-13T11:13:50;81592.06;;;-145.17;58.18
32759;BME280;19125;52.360;9.974;2023-03-13T11:16:25;83717.47;;;-145.17;57.55
32759;BME280;19125;52.360;9.974;2023-03-13T11:19:16;85411.44;;;-145.17;56.52
32759;BME280;19125;52.360;9.974;2023-03-13T11:32:37;86945.38;;;-145.17;52.78
32759;BME280;19125;52.360;9.974;2023-03-13T11:37:50;86985.06;;;-145.17;51.86
32759;BME280;19125;52.360;9.974;2023-03-13T11:42:58;86973.16;;;-145.17;51.48
32759;BME280;19125;52.360;9.974;2023-03-13T11:51:37;86961.25;;;-145.17;50.87
32759;BME280;19125;52.360;9.974;2023-03-13T11:56:54;86860.03;;;-145.17;49.34
32759;BME280;19125;52.360;9.974;2023-03-13T12:01:59;86897.72;;;-145.17;49.60
32759;BME280;19125;52.360;9.974;2023-03-13T12:04:32;86915.59;;;-145.17;49.54
32759;BME280;19125;52.360;9.974;2023-03-13T12:07:29;86897.72;;;-145.17;48.97
32759;BME280;19125;52.360;9.974;2023-03-13T12:10:02;86846.13;;;-145.17;48.28
32759;BME280;19125;52.360;9.974;2023-03-13T12:12:45;86834.22;;;-145.17;48.25
32759;BME280;19125;52.360;9.974;2023-03-13T12:18:06;86762.78;;;-145.17;47.52
32759;BME280;19125;52.360;9.974;2023-03-13T12:26:09;86715.13;;;-145.17;47.14
32759;BME280;19125;52.360;9.974;2023-03-13T12:31:35;86673.47;;;-145.17;46.18
32759;BME280;19125;52.360;9.974;2023-03-13T12:37:15;86699.25;;;-145.17;46.54
32759;BME280;19125;52.360;9.974;2023-03-13T12:39:51;86669.50;;;-145.17;46.22
32759;BME280;19125;52.360;9.974;2023-03-13T12:42:35;86627.81;;;-145.17;46.03
32759;BME280;19125;52.360;9.974;2023-03-13T12:45:06;86598.03;;;-145.17;45.73
32759;BME280;19125;52.360;9.974;2023-03-13T13:01:05;86514.69;;;-145.17;44.06
32759;BME280;19125;52.360;9.974;2023-03-13T13:03:38;86471.03;;;-145.17;43.49
32759;BME280;19125;52.360;9.974;2023-03-13T13:06:15;86532.56;;;-145.17;44.03
32759;BME280;19125;52.360;9.974;2023-03-13T13:09:02;86546.44;;;-145.17;44.45
32759;BME280;19125;52.360;9.974;2023-03-13T13:11:42;86546.44;;;-145.17;44.29
32759;BME280;19125;52.360;9.974;2023-03-13T13:16:47;86429.34;;;-145.17;44.10
32759;BME280;19125;52.360;9.974;2023-03-13T13:25:25;86282.50;;;-145.17;41.56
32759;BME280;19125;52.360;9.974;2023-03-13T13:27:51;86320.22;;;-145.17;42.21
32759;BME280;19125;52.360;9.974;2023-03-13T13:32:55;86330.13;;;-145.17;42.21
32759;BME280;19125;52.360;9.974;2023-03-13T13:35:29;86338.06;;;-145.17;42.04
32759;BME280;19125;52.360;9.974;2023-03-13T13:43:33;86159.47;;;-145.17;39.77
32759;BME280;19125;52.360;9.974;2023-03-13T13:48:32;86207.09;;;-145.17;40.17
32759;BME280;19125;52.360;9.974;2023-03-13T13:51:24;86213.06;;;-145.17;39.86
32759;BME280;19125;52.360;9.974;2023-03-13T13:56:40;86256.72;;;-145.17;40.61
32759;BME280;19125;52.360;9.974;2023-03-13T13:59:21;86230.91;;;-145.17;39.97
32759;BME280;19125;52.360;9.974;2023-03-13T14:07:16;86252.75;;;-145.17;40.44
32759;BME280;19125;52.360;9.974;2023-03-13T14:12:37;86264.66;;;-145.17;40.34
32759;BME280;19125;52.360;9.974;2023-03-13T14:15:20;86246.78;;;-145.17;40.15
32759;BME280;19125;52.360;9.974;2023-03-13T14:17:52;86248.78;;;-145.17;40.33
32759;BME280;19125;52.360;9.974;2023-03-13T14:20:28;86238.84;;;-145.17;40.39
32759;BME280;19125;52.360;9.974;2023-03-13T14:22:56;86260.69;;;-145.17;40.58
32759;BME280;19125;52.360;9.974;2023-03-13T14:25:23;86234.88;;;-145.17;40.36